Time;durP1;ratioP1;P1;durP2;ratioP2;P2;SDS_P1;SDS_P2;PMS_P1;PMS_P2;Temp;Humidity;BMP_temperature;BMP_pressure;BME280_temperature;BME280_humidity;BME280_pressure;Samples;Min_cycle;Max_cycle;Signal;HPM_P1;HPM_P2
2022/07/05 00:00:13;;;;;;;;;;;24.80;92.50;;;;;;5050801;28;19917;-69
2022/07/05 00:02:39;;;;;;;;;;;24.70;92.60;;;;;;5050734;28;19912;-70
2022/07/05 00:05:05;;;;;;;;;;;24.70;92.80;;;;;;5032354;28;20357;-69
2022/07/05 00:07:30;;;;;;;;;;;24.60;92.90;;;;;;5050483;28;19936;-70
2022/07/05 00:09:57;;;;;;;;;;;24.60;93.10;;;;;;5050726;28;20287;-70
2022/07/05 00:12:27;;;;;;;;;;;24.50;93.20;;;;;;5050734;28;20007;-70
2022/07/05 00:14:53;;;;;;;;;;;24.50;93.30;;;;;;5050850;28;19924;-69
2022/07/05 00:17:18;;;;;;;;;;;24.50;93.40;;;;;;5050563;28;19909;-69
2022/07/05 00:19:44;;;;;;;;;;;24.50;93.50;;;;;;5050530;28;20436;-69
2022/07/05 00:22:09;;;;;;;;;;;24.50;93.60;;;;;;5050799;28;19908;-69
2022/07/05 00:24:35;;;;;;;;;;;24.50;93.70;;;;;;5050626;28;19916;-70
2022/07/05 00:27:01;;;;;;;;;;;24.50;93.90;;;;;;5050533;28;20584;-69
2022/07/05 00:29:26;;;;;;;;;;;24.40;94.00;;;;;;5050623;28;19916;-69
2022/07/05 00:31:52;;;;;;;;;;;24.40;94.10;;;;;;5050202;28;19912;-70
2022/07/05 00:34:17;;;;;;;;;;;24.40;94.20;;;;;;5050097;28;20000;-69
2022/07/05 00:36:43;;;;;;;;;;;24.30;94.30;;;;;;5050193;28;19934;-71
2022/07/05 00:39:08;;;;;;;;;;;24.30;94.40;;;;;;5049968;28;19956;-69
2022/07/05 00:41:34;;;;;;;;;;;24.30;94.50;;;;;;5050586;28;19964;-69
2022/07/05 00:44:02;;;;;;;;;;;24.30;94.60;;;;;;5050267;28;19915;-70
2022/07/05 00:46:28;;;;;;;;;;;24.30;94.70;;;;;;5050516;28;20379;-69
2022/07/05 00:48:54;;;;;;;;;;;24.30;94.80;;;;;;5050019;28;19913;-71
2022/07/05 00:51:20;;;;;;;;;;;24.30;95.00;;;;;;5050730;28;20478;-70
2022/07/05 00:53:45;;;;;;;;;;;24.30;95.10;;;;;;5050143;28;20260;-69
2022/07/05 00:56:11;;;;;;;;;;;24.30;95.10;;;;;;5050110;28;20000;-69
2022/07/05 00:58:37;;;;;;;;;;;24.30;95.30;;;;;;5049972;28;19935;-69
2022/07/05 01:01:03;;;;;;;;;;;24.30;95.40;;;;;;5050361;28;19932;-69
2022/07/05 01:03:29;;;;;;;;;;;24.30;95.40;;;;;;5050122;28;19996;-69
2022/07/05 01:05:54;;;;;;;;;;;24.30;95.60;;;;;;5050430;28;19968;-69
2022/07/05 01:08:21;;;;;;;;;;;24.20;95.80;;;;;;5050007;28;19947;-70
2022/07/05 01:10:46;;;;;;;;;;;24.20;95.90;;;;;;5050009;28;20313;-69
2022/07/05 01:13:12;;;;;;;;;;;24.20;96.10;;;;;;5050033;28;19912;-69
2022/07/05 01:15:38;;;;;;;;;;;24.10;96.20;;;;;;5032079;28;19959;-70
2022/07/05 01:18:04;;;;;;;;;;;24.10;96.40;;;;;;5052861;28;19912;-71
2022/07/05 01:20:30;;;;;;;;;;;24.10;96.50;;;;;;5054137;28;19917;-70
2022/07/05 01:22:59;;;;;;;;;;;24.10;96.70;;;;;;5035812;28;19916;-70
2022/07/05 01:25:26;;;;;;;;;;;24.10;96.90;;;;;;5053804;28;19921;-71
2022/07/05 01:27:53;;;;;;;;;;;24.10;97.00;;;;;;5053712;28;19913;-70
2022/07/05 01:30:18;;;;;;;;;;;24.00;97.10;;;;;;5053815;28;19924;-69
2022/07/05 01:32:44;;;;;;;;;;;24.00;97.30;;;;;;5053829;28;19924;-69
2022/07/05 01:35:10;;;;;;;;;;;24.10;97.40;;;;;;5053883;28;20022;-70
2022/07/05 01:37:36;;;;;;;;;;;24.10;97.50;;;;;;5053325;28;20111;-71
2022/07/05 01:40:06;;;;;;;;;;;24.00;97.60;;;;;;5053819;28;19917;-69
2022/07/05 01:42:31;;;;;;;;;;;24.00;97.80;;;;;;5035578;28;20416;-70
2022/07/05 01:44:57;;;;;;;;;;;24.00;98.10;;;;;;5053558;28;20003;-69
2022/07/05 01:47:23;;;;;;;;;;;23.90;98.30;;;;;;5053141;28;20372;-69
2022/07/05 01:49:50;;;;;;;;;;;23.90;98.60;;;;;;5053327;28;19916;-70
2022/07/05 01:52:16;;;;;;;;;;;23.90;98.90;;;;;;5053327;28;19939;-70
2022/07/05 01:54:43;;;;;;;;;;;23.90;99.00;;;;;;5035282;28;19955;-68
2022/07/05 01:57:08;;;;;;;;;;;23.90;99.20;;;;;;5053189;28;19913;-68
2022/07/05 01:59:35;;;;;;;;;;;23.90;99.40;;;;;;5053166;28;19928;-68
2022/07/05 02:02:00;;;;;;;;;;;23.90;99.60;;;;;;5053179;28;20303;-68
2022/07/05 02:04:27;;;;;;;;;;;23.80;99.70;;;;;;5053099;28;19962;-69
2022/07/05 02:06:53;;;;;;;;;;;23.80;99.90;;;;;;5053233;28;20201;-69
2022/07/05 02:09:18;;;;;;;;;;;23.80;99.90;;;;;;5053619;28;19913;-69
2022/07/05 02:11:43;;;;;;;;;;;23.70;99.90;;;;;;5053233;28;19909;-69
2022/07/05 02:14:09;;;;;;;;;;;23.70;99.90;;;;;;5053183;28;20396;-68
2022/07/05 02:16:35;;;;;;;;;;;23.70;99.90;;;;;;5052892;28;20010;-69
2022/07/05 02:19:00;;;;;;;;;;;23.70;99.90;;;;;;5052847;28;19916;-69
2022/07/05 02:21:26;;;;;;;;;;;23.70;99.90;;;;;;5053392;28;19917;-68
2022/07/05 02:23:52;;;;;;;;;;;23.60;99.90;;;;;;5052858;28;19909;-69
2022/07/05 02:26:17;;;;;;;;;;;23.60;99.90;;;;;;5034938;28;20003;-70
2022/07/05 02:28:43;;;;;;;;;;;23.50;99.90;;;;;;5051880;28;20007;-69
2022/07/05 02:31:09;;;;;;;;;;;23.50;99.90;;;;;;5052425;28;19916;-68
2022/07/05 02:33:34;;;;;;;;;;;23.60;99.90;;;;;;5052832;28;19908;-68
2022/07/05 02:36:11;;;;;;;;;;;23.50;99.90;;;;;;5052452;28;19921;-70
2022/07/05 02:38:37;;;;;;;;;;;23.50;99.90;;;;;;5052253;28;20027;-70
2022/07/05 02:41:09;;;;;;;;;;;23.50;99.90;;;;;;5052884;28;20083;-69
2022/07/05 02:43:34;;;;;;;;;;;23.50;99.90;;;;;;5034546;28;19913;-70
2022/07/05 02:46:00;;;;;;;;;;;23.50;99.90;;;;;;5052448;28;20379;-69
2022/07/05 02:48:26;;;;;;;;;;;23.50;99.90;;;;;;5052219;28;20021;-69
2022/07/05 02:50:52;;;;;;;;;;;23.50;99.90;;;;;;5052575;28;19924;-69
2022/07/05 02:53:17;;;;;;;;;;;23.40;99.90;;;;;;5052153;28;20272;-69
2022/07/05 02:55:43;;;;;;;;;;;23.30;99.90;;;;;;5052449;28;19921;-70
2022/07/05 02:58:08;;;;;;;;;;;23.40;99.90;;;;;;5052349;28;19908;-70
2022/07/05 03:00:34;;;;;;;;;;;23.40;99.90;;;;;;5034234;28;19921;-69
2022/07/05 03:02:59;;;;;;;;;;;23.40;99.90;;;;;;5052243;28;19912;-69
2022/07/05 03:05:25;;;;;;;;;;;23.40;99.90;;;;;;5051948;28;19964;-69
2022/07/05 03:07:50;;;;;;;;;;;23.50;99.90;;;;;;5051904;28;19921;-70
2022/07/05 03:10:16;;;;;;;;;;;23.50;99.90;;;;;;5052228;28;19924;-69
2022/07/05 03:12:41;;;;;;;;;;;23.50;99.90;;;;;;5051803;28;20262;-70
2022/07/05 03:15:07;;;;;;;;;;;23.60;99.90;;;;;;5052147;28;19917;-69
2022/07/05 03:17:32;;;;;;;;;;;23.60;99.90;;;;;;5051699;28;19909;-69
2022/07/05 03:19:58;;;;;;;;;;;23.70;99.90;;;;;;5051971;28;20250;-70
2022/07/05 03:22:23;;;;;;;;;;;23.70;99.90;;;;;;5051779;28;19920;-69
2022/07/05 03:24:49;;;;;;;;;;;23.80;99.90;;;;;;5051710;28;20011;-68
2022/07/05 03:27:14;;;;;;;;;;;23.80;99.90;;;;;;5051641;28;19908;-69
2022/07/05 03:29:40;;;;;;;;;;;23.80;99.90;;;;;;5051582;28;19920;-69
2022/07/05 03:32:05;;;;;;;;;;;23.90;99.90;;;;;;5051500;28;19908;-68
2022/07/05 03:34:31;;;;;;;;;;;23.90;99.90;;;;;;5051189;28;19978;-68
2022/07/05 03:36:56;;;;;;;;;;;23.90;99.90;;;;;;5051325;28;20280;-70
2022/07/05 03:39:22;;;;;;;;;;;23.90;99.90;;;;;;5051083;28;20012;-70
2022/07/05 03:41:47;;;;;;;;;;;23.90;99.90;;;;;;5050319;28;20339;-70
2022/07/05 03:44:13;;;;;;;;;;;24.00;99.90;;;;;;5051038;28;19962;-70
2022/07/05 03:46:38;;;;;;;;;;;24.00;99.90;;;;;;5051533;28;20011;-70
2022/07/05 03:49:04;;;;;;;;;;;24.00;99.90;;;;;;5051119;28;20447;-70
2022/07/05 03:51:29;;;;;;;;;;;24.00;99.90;;;;;;5051604;28;19924;-69
2022/07/05 03:53:55;;;;;;;;;;;24.00;99.90;;;;;;5050904;28;19951;-70
2022/07/05 03:56:22;;;;;;;;;;;24.00;99.90;;;;;;5051340;28;19917;-69
2022/07/05 03:58:49;;;;;;;;;;;24.00;99.90;;;;;;5050935;28;19913;-69
2022/07/05 04:01:14;;;;;;;;;;;24.10;99.90;;;;;;5051099;28;20341;-69
2022/07/05 04:03:40;;;;;;;;;;;24.10;99.90;;;;;;5050859;28;19909;-69
2022/07/05 04:06:06;;;;;;;;;;;24.20;99.90;;;;;;5051044;28;19917;-69
2022/07/05 04:08:32;;;;;;;;;;;24.20;99.90;;;;;;5032620;28;19967;-68
2022/07/05 04:10:57;;;;;;;;;;;24.30;99.90;;;;;;5051013;28;20301;-70
2022/07/05 04:13:23;;;;;;;;;;;24.30;99.90;;;;;;5050713;28;20390;-69
2022/07/05 04:15:49;;;;;;;;;;;24.40;99.90;;;;;;5050484;28;19924;-69
2022/07/05 04:18:15;;;;;;;;;;;24.40;99.90;;;;;;5051021;28;20216;-69
2022/07/05 04:20:40;;;;;;;;;;;24.60;99.90;;;;;;5032688;28;19917;-69
2022/07/05 04:23:06;;;;;;;;;;;24.70;99.90;;;;;;5050637;28;20337;-69
2022/07/05 04:25:31;;;;;;;;;;;24.80;99.90;;;;;;5050594;28;19917;-69
2022/07/05 04:27:57;;;;;;;;;;;24.90;99.90;;;;;;5050329;28;20296;-69
2022/07/05 04:30:23;;;;;;;;;;;25.00;99.90;;;;;;5050521;28;20356;-69
2022/07/05 04:32:49;;;;;;;;;;;25.00;99.90;;;;;;5050289;28;20284;-70
2022/07/05 04:35:15;;;;;;;;;;;25.00;99.90;;;;;;5050419;28;19927;-69
2022/07/05 04:37:41;;;;;;;;;;;25.10;99.90;;;;;;5050511;28;20392;-69
2022/07/05 04:40:07;;;;;;;;;;;25.10;99.90;;;;;;5050313;28;19917;-71
2022/07/05 04:42:33;;;;;;;;;;;25.10;99.90;;;;;;5050273;28;19916;-69
2022/07/05 04:44:59;;;;;;;;;;;25.10;99.90;;;;;;5050452;28;19916;-70
2022/07/05 04:47:27;;;;;;;;;;;25.10;99.90;;;;;;5050061;28;19920;-70
2022/07/05 04:49:53;;;;;;;;;;;25.00;99.90;;;;;;5050375;28;20288;-68
2022/07/05 04:52:19;;;;;;;;;;;25.00;99.90;;;;;;5053898;28;19912;-69
2022/07/05 04:54:44;;;;;;;;;;;25.00;99.90;;;;;;5056843;28;19921;-69
2022/07/05 04:57:10;;;;;;;;;;;25.00;99.90;;;;;;5038844;28;20288;-68
2022/07/05 04:59:35;;;;;;;;;;;24.90;99.90;;;;;;5056646;28;19919;-68
2022/07/05 05:02:01;;;;;;;;;;;25.00;99.90;;;;;;5057019;28;19920;-69
2022/07/05 05:04:26;;;;;;;;;;;25.00;99.90;;;;;;5038722;28;19999;-68
2022/07/05 05:06:52;;;;;;;;;;;25.00;99.90;;;;;;5056769;28;19913;-69
2022/07/05 05:09:17;;;;;;;;;;;25.00;99.90;;;;;;5038395;28;19912;-70
2022/07/05 05:11:43;;;;;;;;;;;25.10;99.90;;;;;;5056936;28;19917;-69
2022/07/05 05:14:08;;;;;;;;;;;25.10;99.90;;;;;;5038374;28;20005;-70
2022/07/05 05:16:34;;;;;;;;;;;25.20;99.90;;;;;;5056422;28;20360;-69
2022/07/05 05:18:59;;;;;;;;;;;25.30;99.90;;;;;;5056562;28;19913;-68
2022/07/05 05:21:25;;;;;;;;;;;25.40;99.90;;;;;;5056973;28;20265;-69
2022/07/05 05:23:50;;;;;;;;;;;25.40;99.90;;;;;;5038459;28;19919;-69
2022/07/05 05:26:16;;;;;;;;;;;25.40;99.90;;;;;;5056643;28;19913;-69
2022/07/05 05:28:41;;;;;;;;;;;25.40;99.90;;;;;;5056232;28;19970;-68
2022/07/05 05:31:07;;;;;;;;;;;25.40;99.90;;;;;;5056555;28;20357;-69
2022/07/05 05:33:33;;;;;;;;;;;25.40;99.90;;;;;;5056942;28;19913;-69
2022/07/05 05:35:58;;;;;;;;;;;25.40;99.90;;;;;;5056639;28;19986;-70
2022/07/05 05:38:24;;;;;;;;;;;25.70;99.90;;;;;;5056340;28;19921;-69
2022/07/05 05:40:49;;;;;;;;;;;25.40;99.90;;;;;;5056592;28;19921;-70
2022/07/05 05:43:15;;;;;;;;;;;25.40;99.90;;;;;;5056562;28;19909;-69
2022/07/05 05:45:40;;;;;;;;;;;25.50;99.90;;;;;;5056249;28;20019;-69
2022/07/05 05:48:06;;;;;;;;;;;25.60;99.90;;;;;;5056460;28;19935;-70
2022/07/05 05:50:33;;;;;;;;;;;25.70;99.90;;;;;;5056259;28;19924;-69
2022/07/05 05:52:58;;;;;;;;;;;25.90;99.90;;;;;;5056217;28;19935;-69
2022/07/05 05:55:25;;;;;;;;;;;26.10;99.90;;;;;;5056342;28;20007;-69
2022/07/05 05:57:51;;;;;;;;;;;26.20;99.90;;;;;;5038184;28;20324;-70
2022/07/05 06:00:17;;;;;;;;;;;26.30;99.90;;;;;;5056193;28;19917;-70
2022/07/05 06:02:43;;;;;;;;;;;26.30;99.90;;;;;;5055462;28;19909;-69
2022/07/05 06:05:09;;;;;;;;;;;26.30;99.90;;;;;;5052355;28;19920;-69
2022/07/05 06:07:48;;;;;;;;;;;26.40;99.90;;;;;;5053038;28;19917;-70
2022/07/05 06:10:19;;;;;;;;;;;26.60;99.90;;;;;;5052789;28;19921;-69
2022/07/05 06:12:45;;;;;;;;;;;26.80;99.90;;;;;;5052790;28;19979;-69
2022/07/05 06:15:11;;;;;;;;;;;26.80;99.90;;;;;;5034608;28;19975;-70
2022/07/05 06:17:37;;;;;;;;;;;26.90;99.90;;;;;;5034414;28;19909;-69
2022/07/05 06:20:10;;;;;;;;;;;27.00;99.90;;;;;;5034581;28;19921;-71
2022/07/05 06:22:36;;;;;;;;;;;27.00;99.90;;;;;;5052985;28;19909;-69
2022/07/05 06:25:02;;;;;;;;;;;27.10;99.90;;;;;;5052323;28;19921;-69
2022/07/05 06:27:27;;;;;;;;;;;27.20;99.90;;;;;;5052674;28;19909;-69
2022/07/05 06:29:53;;;;;;;;;;;27.30;99.90;;;;;;5052376;28;19925;-69
2022/07/05 06:32:18;;;;;;;;;;;27.50;99.90;;;;;;5034139;28;19909;-69
2022/07/05 06:34:44;;;;;;;;;;;27.50;99.90;;;;;;5034525;28;19939;-69
2022/07/05 06:37:09;;;;;;;;;;;27.60;99.90;;;;;;5052117;28;19970;-69
2022/07/05 06:39:35;;;;;;;;;;;27.60;99.90;;;;;;5034194;28;19917;-69
2022/07/05 06:42:00;;;;;;;;;;;27.70;99.90;;;;;;5052515;28;19909;-69
2022/07/05 06:44:26;;;;;;;;;;;27.80;99.90;;;;;;5052559;28;19908;-69
2022/07/05 06:46:51;;;;;;;;;;;27.80;99.90;;;;;;5034412;28;19920;-70
2022/07/05 06:49:17;;;;;;;;;;;27.90;99.90;;;;;;5052177;28;19969;-68
2022/07/05 06:51:42;;;;;;;;;;;27.90;99.90;;;;;;5051964;28;19961;-69
2022/07/05 06:54:08;;;;;;;;;;;27.90;99.90;;;;;;5051924;28;20367;-68
2022/07/05 06:56:34;;;;;;;;;;;28.00;99.90;;;;;;5051717;28;19929;-69
2022/07/05 06:58:59;;;;;;;;;;;28.10;99.90;;;;;;5051686;28;20253;-68
2022/07/05 07:01:24;;;;;;;;;;;28.20;99.90;;;;;;5051950;28;20004;-71
2022/07/05 07:03:50;;;;;;;;;;;28.40;99.90;;;;;;5051904;28;19909;-70
2022/07/05 07:06:16;;;;;;;;;;;28.50;99.90;;;;;;5051812;28;19917;-69
2022/07/05 07:11:25;;;;;;;;;;;28.80;99.90;;;;;;5052137;28;20300;-69
2022/07/05 07:13:51;;;;;;;;;;;28.80;99.90;;;;;;5051638;28;19909;-69
2022/07/05 07:16:16;;;;;;;;;;;28.90;99.90;;;;;;5051672;28;19917;-70
2022/07/05 07:18:42;;;;;;;;;;;29.00;99.90;;;;;;5051994;28;20412;-65
2022/07/05 07:21:07;;;;;;;;;;;29.10;97.60;;;;;;5051505;28;19917;-64
2022/07/05 07:23:33;;;;;;;;;;;29.00;97.40;;;;;;5051545;28;19978;-64
2022/07/05 07:25:58;;;;;;;;;;;28.90;96.40;;;;;;5051245;28;19944;-64
2022/07/05 07:28:24;;;;;;;;;;;28.80;96.00;;;;;;5033226;28;19920;-65
2022/07/05 07:30:49;;;;;;;;;;;28.80;96.60;;;;;;5051236;28;19923;-64
2022/07/05 07:33:15;;;;;;;;;;;29.00;96.40;;;;;;5051183;28;19909;-64
2022/07/05 07:35:40;;;;;;;;;;;29.20;96.10;;;;;;5058387;28;19939;-65
2022/07/05 07:38:06;;;;;;;;;;;29.40;95.50;;;;;;5068744;28;19928;-67
2022/07/05 07:40:31;;;;;;;;;;;29.50;94.80;;;;;;5069221;28;20283;-66
2022/07/05 07:42:57;;;;;;;;;;;29.60;94.90;;;;;;5068673;28;19912;-66
2022/07/05 07:45:22;;;;;;;;;;;29.70;94.00;;;;;;5062868;28;19923;-66
2022/07/05 07:47:48;;;;;;;;;;;29.70;93.60;;;;;;5050053;28;19986;-64
2022/07/05 07:50:13;;;;;;;;;;;29.80;92.60;;;;;;5061241;28;19927;-65
2022/07/05 07:52:40;;;;;;;;;;;29.70;92.50;;;;;;5069175;28;19947;-66
2022/07/05 07:55:06;;;;;;;;;;;29.70;92.00;;;;;;5050883;28;19927;-65
2022/07/05 07:57:32;;;;;;;;;;;29.80;91.90;;;;;;5035432;28;19960;-65
2022/07/05 07:59:57;;;;;;;;;;;29.80;92.20;;;;;;5051934;28;19952;-65
2022/07/05 08:02:23;;;;;;;;;;;29.80;92.10;;;;;;5062756;28;19912;-65
2022/07/05 08:04:50;;;;;;;;;;;29.80;90.90;;;;;;5050518;28;19927;-65
2022/07/05 08:07:17;;;;;;;;;;;29.90;90.90;;;;;;5061130;28;19913;-67
2022/07/05 08:09:42;;;;;;;;;;;30.00;91.10;;;;;;5062841;28;19917;-68
2022/07/05 08:12:08;;;;;;;;;;;30.30;90.80;;;;;;5032411;28;19913;-67
2022/07/05 08:14:34;;;;;;;;;;;30.50;90.10;;;;;;5050440;28;19927;-67
2022/07/05 08:16:59;;;;;;;;;;;30.50;89.30;;;;;;5049886;28;19916;-67
2022/07/05 08:22:09;;;;;;;;;;;30.50;90.60;;;;;;5050861;28;19932;-66
2022/07/05 08:24:39;;;;;;;;;;;30.60;90.70;;;;;;5050026;28;20348;-66
2022/07/05 08:27:05;;;;;;;;;;;30.60;90.90;;;;;;5044138;28;19912;-66
2022/07/05 08:29:31;;;;;;;;;;;30.50;90.50;;;;;;5069591;28;19995;-66
2022/07/05 08:31:56;;;;;;;;;;;30.70;89.50;;;;;;5067844;28;19912;-66
2022/07/05 08:34:22;;;;;;;;;;;31.00;88.60;;;;;;5069530;28;19958;-66
2022/07/05 08:36:48;;;;;;;;;;;31.20;84.90;;;;;;5063835;28;19994;-67
2022/07/05 08:39:13;;;;;;;;;;;31.30;83.40;;;;;;5069939;28;20625;-67
2022/07/05 08:41:40;;;;;;;;;;;31.40;83.40;;;;;;5069414;28;19948;-67
2022/07/05 08:44:06;;;;;;;;;;;31.30;85.90;;;;;;5069571;28;19908;-67
2022/07/05 08:46:32;;;;;;;;;;;31.30;86.30;;;;;;5059216;28;20379;-67
2022/07/05 08:48:59;;;;;;;;;;;31.70;86.40;;;;;;5068941;28;20057;-67
2022/07/05 08:51:26;;;;;;;;;;;31.80;85.80;;;;;;5047745;28;19985;-67
2022/07/05 08:53:52;;;;;;;;;;;31.80;86.00;;;;;;5064047;28;19920;-67
2022/07/05 08:56:18;;;;;;;;;;;32.10;86.10;;;;;;5069200;28;19924;-67
2022/07/05 08:58:44;;;;;;;;;;;32.50;85.10;;;;;;5066215;28;20395;-67
2022/07/05 09:01:10;;;;;;;;;;;32.70;84.20;;;;;;5054887;28;19924;-67
2022/07/05 09:03:52;;;;;;;;;;;32.70;82.30;;;;;;5069236;28;20007;-67
2022/07/05 09:06:19;;;;;;;;;;;32.60;80.60;;;;;;5062181;28;20040;-67
2022/07/05 09:08:45;;;;;;;;;;;32.30;79.90;;;;;;5047992;28;19923;-67
2022/07/05 09:11:14;;;;;;;;;;;32.20;78.80;;;;;;5065868;28;20010;-66
2022/07/05 09:13:41;;;;;;;;;;;32.40;79.60;;;;;;5068865;28;19954;-68
2022/07/05 09:16:06;;;;;;;;;;;32.60;79.50;;;;;;5068949;28;19917;-67
2022/07/05 09:18:38;;;;;;;;;;;32.80;79.10;;;;;;5069438;28;19915;-67
2022/07/05 09:21:23;;;;;;;;;;;32.80;78.00;;;;;;5060418;28;19924;-67
2022/07/05 09:23:55;;;;;;;;;;;33.00;77.40;;;;;;5067534;28;20353;-67
2022/07/05 09:26:31;;;;;;;;;;;33.10;77.20;;;;;;5067408;28;19923;-66
2022/07/05 09:28:57;;;;;;;;;;;33.10;77.00;;;;;;5050032;28;19913;-67
2022/07/05 09:31:27;;;;;;;;;;;33.20;77.30;;;;;;5055474;28;19928;-67
2022/07/05 09:33:52;;;;;;;;;;;33.30;78.20;;;;;;5057104;28;19920;-67
2022/07/05 09:36:18;;;;;;;;;;;33.40;78.20;;;;;;5067579;28;20377;-67
2022/07/05 09:38:49;;;;;;;;;;;33.80;78.50;;;;;;5061042;28;19932;-68
2022/07/05 09:41:15;;;;;;;;;;;34.10;77.60;;;;;;5058864;28;20317;-67
2022/07/05 09:43:40;;;;;;;;;;;34.40;77.30;;;;;;5072981;28;19999;-68
2022/07/05 09:46:07;;;;;;;;;;;34.50;75.00;;;;;;5069151;28;19917;-68
2022/07/05 09:48:33;;;;;;;;;;;34.40;75.00;;;;;;5073055;28;20307;-67
2022/07/05 09:51:05;;;;;;;;;;;34.50;75.30;;;;;;5053575;28;19917;-66
2022/07/05 09:53:46;;;;;;;;;;;34.50;75.10;;;;;;5070660;28;19912;-66
2022/07/05 09:56:13;;;;;;;;;;;34.40;74.40;;;;;;5064645;28;19917;-68
2022/07/05 09:58:39;;;;;;;;;;;34.20;75.10;;;;;;5058969;28;19959;-65
2022/07/05 10:01:23;;;;;;;;;;;34.10;74.90;;;;;;5059753;28;19920;-66
2022/07/05 10:03:52;;;;;;;;;;;34.30;74.40;;;;;;5052131;28;20348;-66
2022/07/05 10:06:18;;;;;;;;;;;34.70;73.60;;;;;;5059279;28;19924;-65
2022/07/05 10:08:44;;;;;;;;;;;34.80;73.10;;;;;;5070678;28;19974;-66
2022/07/05 10:11:10;;;;;;;;;;;34.80;72.60;;;;;;5072249;28;20279;-65
2022/07/05 10:13:36;;;;;;;;;;;34.80;72.50;;;;;;5072392;28;19919;-65
2022/07/05 10:16:01;;;;;;;;;;;34.60;72.40;;;;;;5065155;28;19921;-64
2022/07/05 10:18:31;;;;;;;;;;;34.40;72.30;;;;;;5072049;28;19918;-66
2022/07/05 10:20:59;;;;;;;;;;;34.40;73.40;;;;;;5071958;28;20027;-66
2022/07/05 10:23:25;;;;;;;;;;;34.10;73.30;;;;;;5053678;28;19971;-65
2022/07/05 10:25:51;;;;;;;;;;;33.50;74.70;;;;;;5054402;28;19987;-66
2022/07/05 10:28:17;;;;;;;;;;;32.70;75.50;;;;;;5071838;28;20294;-66
2022/07/05 10:30:49;;;;;;;;;;;32.80;75.30;;;;;;5070113;28;20356;-67
2022/07/05 10:33:19;;;;;;;;;;;33.00;74.00;;;;;;5072101;28;19948;-67
2022/07/05 10:35:44;;;;;;;;;;;33.00;74.30;;;;;;5071918;28;19921;-67
2022/07/05 10:38:11;;;;;;;;;;;33.40;73.70;;;;;;5071538;28;19927;-67
2022/07/05 10:40:40;;;;;;;;;;;33.90;72.40;;;;;;5069775;28;20404;-67
2022/07/05 10:43:07;;;;;;;;;;;34.30;72.10;;;;;;5071832;28;20257;-67
2022/07/05 10:45:34;;;;;;;;;;;34.80;72.00;;;;;;5068398;28;19921;-67
2022/07/05 10:48:11;;;;;;;;;;;35.40;70.00;;;;;;5070440;28;19927;-67
2022/07/05 10:50:43;;;;;;;;;;;35.80;68.30;;;;;;5055195;28;19917;-67
2022/07/05 10:53:09;;;;;;;;;;;36.00;68.10;;;;;;5071210;28;20068;-67
2022/07/05 10:55:51;;;;;;;;;;;36.00;68.30;;;;;;5071382;28;19970;-67
2022/07/05 10:58:16;;;;;;;;;;;36.00;68.30;;;;;;5071001;28;20277;-67
2022/07/05 11:00:43;;;;;;;;;;;36.20;68.10;;;;;;5065856;28;19917;-67
2022/07/05 11:03:27;;;;;;;;;;;36.50;67.30;;;;;;5070529;28;20283;-67
2022/07/05 11:05:53;;;;;;;;;;;36.60;66.00;;;;;;5069631;28;20007;-67
2022/07/05 11:08:19;;;;;;;;;;;36.70;65.80;;;;;;5052444;28;19924;-67
2022/07/05 11:11:03;;;;;;;;;;;36.10;68.30;;;;;;5067642;28;19920;-67
2022/07/05 11:13:39;;;;;;;;;;;35.30;69.40;;;;;;5052749;28;19977;-67
2022/07/05 11:16:21;;;;;;;;;;;34.40;71.20;;;;;;5055970;28;19947;-67
2022/07/05 11:18:48;;;;;;;;;;;33.50;71.50;;;;;;5070967;28;20285;-67
2022/07/05 11:21:20;;;;;;;;;;;32.90;72.70;;;;;;5053344;28;20426;-68
2022/07/05 11:23:46;;;;;;;;;;;33.10;72.60;;;;;;5056114;28;19952;-69
2022/07/05 11:26:13;;;;;;;;;;;33.60;72.30;;;;;;5058350;28;19962;-67
2022/07/05 11:28:45;;;;;;;;;;;34.00;71.80;;;;;;5052118;28;20284;-68
2022/07/05 11:31:11;;;;;;;;;;;34.30;72.50;;;;;;5058891;28;19921;-68
2022/07/05 11:33:38;;;;;;;;;;;34.20;72.10;;;;;;5064327;28;19958;-67
2022/07/05 11:36:06;;;;;;;;;;;33.70;71.80;;;;;;5062248;28;19921;-67
2022/07/05 11:38:32;;;;;;;;;;;33.60;71.50;;;;;;5061626;28;19936;-67
2022/07/05 11:41:13;;;;;;;;;;;33.30;72.10;;;;;;5054642;28;19916;-67
2022/07/05 11:43:40;;;;;;;;;;;32.90;73.00;;;;;;5070460;28;19909;-66
2022/07/05 11:46:06;;;;;;;;;;;32.10;73.90;;;;;;5063756;28;19973;-67
2022/07/05 11:48:31;;;;;;;;;;;31.70;74.90;;;;;;5058723;28;19940;-67
2022/07/05 11:50:57;;;;;;;;;;;31.50;75.50;;;;;;5064168;28;19917;-68
2022/07/05 11:53:30;;;;;;;;;;;31.50;75.30;;;;;;5069637;28;20050;-68
2022/07/05 11:55:59;;;;;;;;;;;31.30;75.00;;;;;;5069863;28;19916;-68
2022/07/05 11:58:34;;;;;;;;;;;31.30;75.40;;;;;;5052558;28;19913;-69
2022/07/05 12:00:59;;;;;;;;;;;31.30;75.30;;;;;;5052578;28;19928;-69
2022/07/05 12:03:25;;;;;;;;;;;31.40;75.90;;;;;;5059565;28;19998;-69
2022/07/05 12:05:52;;;;;;;;;;;31.70;75.10;;;;;;5055008;28;20125;-68
2022/07/05 12:08:26;;;;;;;;;;;31.80;76.90;;;;;;5058634;28;20157;-69
2022/07/05 12:13:44;;;;;;;;;;;31.80;74.60;;;;;;5062590;28;19913;-68
2022/07/05 12:16:10;;;;;;;;;;;31.70;75.10;;;;;;5069146;28;19923;-68
2022/07/05 12:18:52;;;;;;;;;;;32.10;75.10;;;;;;5069716;28;19969;-68
2022/07/05 12:21:20;;;;;;;;;;;32.50;74.60;;;;;;5068251;28;19924;-68
2022/07/05 12:23:46;;;;;;;;;;;32.90;74.60;;;;;;5068046;28;19990;-68
2022/07/05 12:26:12;;;;;;;;;;;33.10;73.70;;;;;;5068124;28;19916;-67
2022/07/05 12:28:38;;;;;;;;;;;33.20;73.40;;;;;;5052844;28;20389;-67
2022/07/05 12:31:20;;;;;;;;;;;33.10;73.20;;;;;;5062863;28;20741;-67
2022/07/05 12:33:46;;;;;;;;;;;32.60;73.20;;;;;;5056381;28;20261;-67
2022/07/05 12:36:13;;;;;;;;;;;32.40;72.70;;;;;;5053104;28;19932;-62
2022/07/05 12:38:38;;;;;;;;;;;32.40;73.30;;;;;;5050433;28;19975;-66
2022/07/05 12:41:04;;;;;;;;;;;32.50;73.50;;;;;;5059299;28;19928;-65
2022/07/05 12:43:30;;;;;;;;;;;32.40;73.30;;;;;;5066069;28;20003;-65
2022/07/05 12:45:59;;;;;;;;;;;32.30;73.20;;;;;;5054789;28;19921;-65
2022/07/05 12:48:32;;;;;;;;;;;32.30;73.40;;;;;;5063213;28;20369;-65
2022/07/05 12:50:58;;;;;;;;;;;32.30;73.80;;;;;;5072245;28;19916;-65
2022/07/05 12:58:57;;;;;;;;;;;31.60;73.90;;;;;;5066527;28;20004;-65
2022/07/05 13:01:24;;;;;;;;;;;31.60;74.40;;;;;;5061280;28;19916;-67
2022/07/05 13:03:58;;;;;;;;;;;31.70;74.10;;;;;;5068708;28;20006;-67
2022/07/05 13:06:38;;;;;;;;;;;31.80;74.10;;;;;;5056710;28;19917;-66
2022/07/05 13:09:04;;;;;;;;;;;31.80;74.10;;;;;;5059840;28;19952;-66
2022/07/05 13:11:30;;;;;;;;;;;31.60;73.60;;;;;;5053903;28;19972;-66
2022/07/05 13:13:55;;;;;;;;;;;31.50;73.90;;;;;;5062188;28;20011;-66
2022/07/05 13:16:21;;;;;;;;;;;31.30;73.70;;;;;;5055733;28;20015;-65
2022/07/05 13:18:46;;;;;;;;;;;31.10;74.80;;;;;;5055822;28;19986;-65
2022/07/05 13:21:12;;;;;;;;;;;31.00;73.30;;;;;;5058505;28;19916;-65
2022/07/05 13:23:37;;;;;;;;;;;30.90;74.40;;;;;;5051506;28;19913;-65
2022/07/05 13:26:03;;;;;;;;;;;31.00;74.70;;;;;;5056682;28;19940;-65
2022/07/05 13:28:28;;;;;;;;;;;30.90;75.00;;;;;;5034967;28;19917;-66
2022/07/05 13:30:54;;;;;;;;;;;30.90;75.00;;;;;;5044199;28;20002;-66
2022/07/05 13:33:19;;;;;;;;;;;30.90;74.00;;;;;;5054714;28;19913;-65
2022/07/05 13:35:45;;;;;;;;;;;30.90;73.70;;;;;;5056071;28;20318;-65
2022/07/05 13:38:10;;;;;;;;;;;30.90;73.00;;;;;;5066642;28;19928;-64
2022/07/05 13:40:35;;;;;;;;;;;30.80;74.10;;;;;;5070643;28;19927;-65
2022/07/05 13:43:01;;;;;;;;;;;30.80;74.10;;;;;;5073018;28;19953;-65
2022/07/05 13:45:26;;;;;;;;;;;30.80;73.10;;;;;;5073259;28;19916;-65
2022/07/05 13:47:52;;;;;;;;;;;30.80;73.60;;;;;;5057114;28;20389;-65
2022/07/05 13:50:39;;;;;;;;;;;30.80;73.80;;;;;;5051475;28;19921;-66
2022/07/05 13:53:03;;;;;;;;;;;30.90;73.50;;;;;;5063368;28;20386;-66
2022/07/05 13:55:29;;;;;;;;;;;30.90;73.30;;;;;;5071478;28;20234;-68
2022/07/05 13:57:55;;;;;;;;;;;31.00;73.90;;;;;;5065353;28;19916;-66
2022/07/05 14:00:21;;;;;;;;;;;31.00;73.50;;;;;;5052371;28;19927;-65
2022/07/05 14:02:47;;;;;;;;;;;31.10;73.70;;;;;;5060229;28;19912;-66
2022/07/05 14:05:12;;;;;;;;;;;31.10;72.70;;;;;;5083649;28;19920;-66
2022/07/05 14:07:38;;;;;;;;;;;31.10;72.80;;;;;;5071084;28;19913;-66
2022/07/05 14:10:04;;;;;;;;;;;31.10;71.80;;;;;;5054916;28;19956;-65
2022/07/05 14:12:29;;;;;;;;;;;31.10;71.80;;;;;;5081298;28;19939;-65
2022/07/05 14:14:55;;;;;;;;;;;31.20;72.20;;;;;;5066551;28;19921;-66
2022/07/05 14:17:20;;;;;;;;;;;31.10;73.20;;;;;;5065457;28;19961;-65
2022/07/05 14:19:46;;;;;;;;;;;31.10;73.10;;;;;;5091047;28;19916;-66
2022/07/05 14:22:11;;;;;;;;;;;31.00;73.40;;;;;;5091593;28;19912;-66
2022/07/05 14:24:37;;;;;;;;;;;31.00;74.60;;;;;;5090844;28;19916;-65
2022/07/05 14:27:02;;;;;;;;;;;30.90;75.70;;;;;;5041947;28;20415;-65